createdAt,value
2022-08-21T00:00:25.586Z,62.95
2022-08-21T00:02:55.731Z,63.17
2022-08-21T00:05:24.377Z,62.26
2022-08-21T00:07:51.711Z,62.23
2022-08-21T00:10:19.833Z,62.46
2022-08-21T00:12:47.384Z,62.31
2022-08-21T00:15:17.379Z,62.53
2022-08-21T00:17:44.714Z,64.02
2022-08-21T00:20:13.086Z,65.09
2022-08-21T00:22:40.719Z,64.37
2022-08-21T00:25:08.666Z,64.91
2022-08-21T00:27:36.778Z,64.59
2022-08-21T00:30:05.498Z,63.92
2022-08-21T00:32:33.074Z,64.72
2022-08-21T00:35:00.306Z,64.86
2022-08-21T00:37:27.996Z,64.64
2022-08-21T00:39:57.862Z,64.59
2022-08-21T00:42:25.237Z,64.26
2022-08-21T00:44:52.624Z,64.24
2022-08-21T00:47:20.007Z,63.84
2022-08-21T00:49:47.303Z,64.08
2022-08-21T00:52:16.820Z,64.43
2022-08-21T00:54:46.283Z,64.42
2022-08-21T00:57:21.865Z,64.63
2022-08-21T00:59:52.489Z,65.50
2022-08-21T01:02:21.053Z,65.29
2022-08-21T01:04:48.498Z,65.84
2022-08-21T01:07:15.993Z,65.82
2022-08-21T01:09:44.386Z,66.50
2022-08-21T01:12:12.626Z,64.79
2022-08-21T01:14:41.381Z,64.76
2022-08-21T01:17:09.126Z,63.78
2022-08-21T01:19:36.376Z,64.09
2022-08-21T01:22:03.942Z,64.00
2022-08-21T01:24:32.607Z,63.11
2022-08-21T01:27:01.032Z,62.79
2022-08-21T01:29:34.654Z,62.33
2022-08-21T01:32:05.236Z,61.95
2022-08-21T01:34:33.453Z,62.40
2022-08-21T01:37:00.684Z,62.51
2022-08-21T01:39:27.912Z,62.44
2022-08-21T01:41:55.118Z,62.58
2022-08-21T01:44:22.869Z,62.09
2022-08-21T01:46:50.700Z,62.71
2022-08-21T01:49:18.348Z,62.79
2022-08-21T01:51:45.536Z,62.03
2022-08-21T01:54:12.836Z,61.77
2022-08-21T01:56:41.257Z,61.28
2022-08-21T01:59:08.669Z,61.01
2022-08-21T02:01:36.387Z,60.33
2022-08-21T02:04:03.941Z,60.19
2022-08-21T02:06:31.145Z,60.32
2022-08-21T02:08:58.677Z,60.35
2022-08-21T02:11:25.883Z,60.41
2022-08-21T02:13:53.028Z,60.23
2022-08-21T02:16:20.149Z,60.23
2022-08-21T02:18:48.361Z,60.19
2022-08-21T02:21:15.542Z,60.14
2022-08-21T02:23:42.998Z,60.41
2022-08-21T02:26:10.465Z,60.26
2022-08-21T02:28:37.976Z,60.14
2022-08-21T02:31:05.381Z,60.16
2022-08-21T02:33:32.877Z,59.67
2022-08-21T02:36:00.223Z,59.75
2022-08-21T02:38:28.991Z,59.72
2022-08-21T02:40:56.464Z,59.65
2022-08-21T02:43:25.104Z,59.57
2022-08-21T02:45:52.719Z,59.87
2022-08-21T02:48:22.175Z,60.44
2022-08-21T02:50:54.682Z,60.16
2022-08-21T02:53:22.889Z,59.54
2022-08-21T02:55:51.667Z,58.98
2022-08-21T02:58:20.638Z,59.26
2022-08-21T03:00:48.174Z,59.85
2022-08-21T03:03:15.640Z,60.69
2022-08-21T03:05:43.704Z,61.41
2022-08-21T03:08:12.488Z,61.27
2022-08-21T03:10:43.513Z,61.11
2022-08-21T03:13:11.880Z,60.50
2022-08-21T03:15:39.210Z,60.71
2022-08-21T03:18:07.790Z,60.36
2022-08-21T03:20:35.927Z,60.19
2022-08-21T03:23:04.395Z,60.76
2022-08-21T03:25:41.169Z,60.72
2022-08-21T03:28:13.397Z,60.13
2022-08-21T03:30:41.790Z,60.51
2022-08-21T03:33:09.155Z,60.71
2022-08-21T03:35:41.410Z,61.34
2022-08-21T03:38:08.841Z,61.54
2022-08-21T03:40:36.168Z,59.78
2022-08-21T03:43:03.405Z,59.68
2022-08-21T03:45:30.702Z,58.81
2022-08-21T03:47:59.673Z,58.88
2022-08-21T03:50:28.080Z,59.48
2022-08-21T03:52:55.694Z,59.59
2022-08-21T03:55:23.320Z,59.76
2022-08-21T03:57:50.553Z,59.59
2022-08-21T04:00:18.616Z,59.19
2022-08-21T04:02:46.554Z,59.51
2022-08-21T04:05:14.705Z,59.24
2022-08-21T04:07:42.054Z,59.15
2022-08-21T04:10:09.838Z,59.29
2022-08-21T04:12:37.226Z,59.07
2022-08-21T04:15:04.746Z,59.31
2022-08-21T04:17:31.971Z,59.05
2022-08-21T04:19:59.951Z,58.63
2022-08-21T04:22:27.848Z,58.67
2022-08-21T04:24:55.304Z,58.25
2022-08-21T04:27:22.559Z,58.71
2022-08-21T04:29:49.745Z,58.93
2022-08-21T04:32:24.229Z,58.92
2022-08-21T04:34:51.594Z,58.25
2022-08-21T04:37:18.814Z,58.37
2022-08-21T04:39:49.294Z,58.43
2022-08-21T04:42:18.743Z,58.25
2022-08-21T04:44:45.989Z,58.37
2022-08-21T04:47:13.188Z,58.61
2022-08-21T04:49:40.350Z,58.80
2022-08-21T04:52:07.580Z,59.28
2022-08-21T04:54:35.042Z,58.95
2022-08-21T04:57:04.684Z,59.19
2022-08-21T04:59:42.739Z,59.48
2022-08-21T05:02:10.672Z,59.31
2022-08-21T05:04:40.121Z,59.48
2022-08-21T05:07:08.453Z,59.53
2022-08-21T05:09:36.008Z,60.25
2022-08-21T05:12:03.610Z,60.31
2022-08-21T05:14:31.002Z,59.64
2022-08-21T05:16:58.150Z,59.06
2022-08-21T05:19:25.636Z,59.00
2022-08-21T05:21:53.062Z,59.03
2022-08-21T05:24:20.329Z,59.21
2022-08-21T05:26:47.905Z,59.19
2022-08-21T05:29:16.710Z,59.30
2022-08-21T05:31:46.068Z,59.76
2022-08-21T05:34:16.275Z,59.82
2022-08-21T05:36:44.866Z,61.32
2022-08-21T05:39:12.126Z,61.06
2022-08-21T05:41:39.461Z,60.98
2022-08-21T05:44:10.823Z,61.60
2022-08-21T05:46:38.706Z,61.43
2022-08-21T05:49:06.091Z,60.73
2022-08-21T05:51:33.311Z,61.10
2022-08-21T05:54:00.458Z,61.80
2022-08-21T05:56:27.627Z,61.52
2022-08-21T05:58:54.831Z,61.33
2022-08-21T06:01:22.212Z,61.66
2022-08-21T06:03:49.420Z,60.91
2022-08-21T06:06:17.084Z,60.46
2022-08-21T06:08:44.557Z,60.35
2022-08-21T06:11:11.930Z,60.36
2022-08-21T06:13:40.029Z,59.46
2022-08-21T06:16:11.396Z,57.98
2022-08-21T06:18:43.669Z,58.78
2022-08-21T06:21:12.628Z,58.86
2022-08-21T06:23:39.887Z,58.75
2022-08-21T06:26:08.185Z,58.91
2022-08-21T06:28:36.083Z,58.68
2022-08-21T06:31:11.418Z,58.54
2022-08-21T06:33:38.633Z,58.32
2022-08-21T06:36:06.110Z,57.68
2022-08-21T06:38:33.442Z,57.71
2022-08-21T06:41:00.611Z,56.52
2022-08-21T06:43:39.678Z,56.30
2022-08-21T06:46:08.646Z,56.03
2022-08-21T06:48:35.978Z,55.74
2022-08-21T06:51:03.620Z,55.37
2022-08-21T06:53:30.823Z,54.36
2022-08-21T06:55:58.033Z,53.54
2022-08-21T06:58:25.218Z,53.26
2022-08-21T07:00:53.999Z,53.57
2022-08-21T07:03:28.321Z,53.81
2022-08-21T07:05:56.109Z,54.67
2022-08-21T07:08:23.368Z,54.76
2022-08-21T07:10:50.803Z,55.57
2022-08-21T07:13:18.116Z,55.87
2022-08-21T07:15:45.833Z,55.98
2022-08-21T07:18:14.211Z,56.09
2022-08-21T07:20:42.127Z,55.85
2022-08-21T07:23:29.965Z,55.65
2022-08-21T07:25:57.152Z,54.79
2022-08-21T07:28:24.453Z,54.97
2022-08-21T07:30:54.158Z,54.94
2022-08-21T07:33:21.520Z,54.50
2022-08-21T07:35:48.967Z,53.29
2022-08-21T07:38:16.385Z,53.07
2022-08-21T07:40:43.822Z,52.51
2022-08-21T07:43:12.067Z,52.57
2022-08-21T07:45:39.419Z,52.68
2022-08-21T07:48:06.654Z,52.68
2022-08-21T07:50:33.888Z,52.99
2022-08-21T07:53:01.277Z,52.50
2022-08-21T07:55:28.520Z,52.69
2022-08-21T07:57:55.698Z,52.08
2022-08-21T08:00:28.736Z,49.93
2022-08-21T08:02:56.866Z,50.43
2022-08-21T08:05:26.514Z,48.82
2022-08-21T08:07:53.854Z,48.16
2022-08-21T08:10:22.246Z,47.51
2022-08-21T08:12:50.229Z,47.93
2022-08-21T08:15:20.358Z,47.58
2022-08-21T08:17:47.820Z,46.91
2022-08-21T08:20:16.545Z,45.73
2022-08-21T08:22:43.868Z,45.91
2022-08-21T08:25:18.672Z,43.89
2022-08-21T08:27:45.902Z,44.83
2022-08-21T08:30:14.793Z,45.16
2022-08-21T08:32:42.197Z,45.49
2022-08-21T08:35:09.891Z,45.41
2022-08-21T08:37:38.747Z,44.52
2022-08-21T08:40:13.503Z,43.92
2022-08-21T08:42:40.742Z,42.50
2022-08-21T08:45:08.059Z,42.98
2022-08-21T08:47:40.503Z,43.29
2022-08-21T08:50:25.139Z,42.67
2022-08-21T08:52:59.278Z,41.54
2022-08-21T08:55:34.958Z,42.32
2022-08-21T08:58:03.618Z,41.56
2022-08-21T09:00:31.990Z,41.44
2022-08-21T09:03:01.300Z,41.41
2022-08-21T09:05:38.771Z,40.04
2022-08-21T09:08:05.999Z,39.65
2022-08-21T09:10:37.122Z,37.56
2022-08-21T09:13:20.224Z,36.88
2022-08-21T09:16:05.530Z,37.54
2022-08-21T09:18:55.612Z,37.86
2022-08-21T09:21:32.037Z,37.52
2022-08-21T09:23:59.157Z,35.35
2022-08-21T09:26:28.226Z,34.02
2022-08-21T09:28:57.521Z,34.39
2022-08-21T09:31:26.957Z,34.85
2022-08-21T09:34:00.353Z,36.00
2022-08-21T09:36:33.806Z,37.20
2022-08-21T09:39:01.004Z,37.41
2022-08-21T09:41:29.872Z,38.32
2022-08-21T09:43:57.139Z,39.23
2022-08-21T09:46:25.799Z,39.49
2022-08-21T09:48:57.975Z,39.71
2022-08-21T09:51:27.027Z,39.76
2022-08-21T09:54:06.647Z,39.52
2022-08-21T09:56:58.568Z,40.50
2022-08-21T09:59:36.853Z,40.76
2022-08-21T10:02:21.048Z,39.79
2022-08-21T10:05:07.983Z,40.42
2022-08-21T10:07:37.970Z,41.04
2022-08-21T10:10:07.293Z,41.09
2022-08-21T10:12:34.612Z,41.14
2022-08-21T10:15:05.287Z,41.17
2022-08-21T10:17:38.277Z,41.40
2022-08-21T10:20:12.068Z,42.14
2022-08-21T10:22:45.513Z,41.88
2022-08-21T10:25:18.812Z,41.36
2022-08-21T10:28:09.032Z,41.39
2022-08-21T10:30:40.122Z,39.87
2022-08-21T10:33:25.973Z,40.00
2022-08-21T10:36:06.563Z,40.89
2022-08-21T10:39:11.824Z,41.45
2022-08-21T10:41:52.019Z,41.42
2022-08-21T10:44:40.118Z,41.71
2022-08-21T10:47:12.039Z,41.81
2022-08-21T10:50:05.796Z,42.91
2022-08-21T10:52:52.154Z,42.20
2022-08-21T10:55:23.667Z,42.17
2022-08-21T10:58:10.352Z,42.57
2022-08-21T11:00:49.022Z,43.05
2022-08-21T11:03:25.573Z,42.10
2022-08-21T11:05:54.243Z,41.67
2022-08-21T11:08:27.302Z,39.35
2022-08-21T11:11:08.644Z,37.54
2022-08-21T11:13:59.499Z,38.74
2022-08-21T11:16:32.561Z,38.94
2022-08-21T11:19:08.902Z,38.42
2022-08-21T11:21:43.442Z,39.74
2022-08-21T11:24:18.061Z,39.88
2022-08-21T11:26:51.347Z,40.56
2022-08-21T11:29:21.932Z,40.54
2022-08-21T11:31:49.051Z,37.69
2022-08-21T11:34:27.356Z,37.28
2022-08-21T11:37:13.132Z,36.34
2022-08-21T11:39:43.386Z,36.36
2022-08-21T11:42:16.697Z,39.35
2022-08-21T11:44:55.455Z,40.68
2022-08-21T11:47:31.716Z,40.70
2022-08-21T11:50:34.089Z,39.20
2022-08-21T11:53:09.986Z,39.80
2022-08-21T11:55:44.490Z,38.60
2022-08-21T11:58:19.043Z,38.20
2022-08-21T12:00:57.501Z,37.63
2022-08-21T12:03:29.069Z,37.45
2022-08-21T12:05:59.201Z,38.44
2022-08-21T12:08:29.228Z,39.10
2022-08-21T12:11:01.565Z,37.85
2022-08-21T12:13:35.710Z,37.74
2022-08-21T12:16:09.448Z,38.07
2022-08-21T12:18:38.943Z,36.47
2022-08-21T12:21:19.848Z,36.95
2022-08-21T12:23:49.735Z,37.42
2022-08-21T12:26:21.401Z,38.16
2022-08-21T12:28:48.766Z,35.90
2022-08-21T12:31:27.603Z,36.64
2022-08-21T12:34:00.128Z,36.70
2022-08-21T12:36:38.733Z,37.14
2022-08-21T12:39:12.130Z,36.61
2022-08-21T12:41:48.220Z,36.24
2022-08-21T12:44:17.067Z,36.15
2022-08-21T12:46:51.155Z,35.74
2022-08-21T12:49:35.303Z,35.75
2022-08-21T12:52:02.512Z,34.57
2022-08-21T12:54:37.890Z,33.57
2022-08-21T12:57:07.076Z,33.65
2022-08-21T12:59:39.625Z,34.07
2022-08-21T13:02:16.673Z,35.09
2022-08-21T13:04:44.208Z,33.43
2022-08-21T13:07:13.326Z,33.95
2022-08-21T13:09:45.630Z,35.59
2022-08-21T13:12:13.200Z,35.36
2022-08-21T13:14:45.988Z,35.91
2022-08-21T13:17:23.589Z,35.38
2022-08-21T13:20:01.446Z,35.78
2022-08-21T13:22:35.077Z,35.97
2022-08-21T13:25:06.608Z,35.58
2022-08-21T13:27:35.137Z,36.00
2022-08-21T13:30:08.388Z,36.84
2022-08-21T13:32:38.791Z,37.06
2022-08-21T13:35:10.922Z,36.00
2022-08-21T13:37:40.537Z,36.53
2022-08-21T13:40:09.104Z,37.41
2022-08-21T13:42:36.536Z,38.06
2022-08-21T13:45:03.930Z,37.70
2022-08-21T13:47:31.295Z,37.75
2022-08-21T13:49:59.445Z,37.20
2022-08-21T13:52:27.549Z,35.91
2022-08-21T13:55:08.387Z,35.85
2022-08-21T13:57:38.270Z,35.92
2022-08-21T14:00:13.297Z,35.33
2022-08-21T14:02:45.372Z,35.92
2022-08-21T14:05:17.480Z,36.48
2022-08-21T14:07:45.301Z,37.55
2022-08-21T14:10:16.267Z,35.91
2022-08-21T14:12:47.111Z,36.34
2022-08-21T14:15:15.500Z,35.49
2022-08-21T14:17:43.346Z,35.06
2022-08-21T14:20:12.221Z,35.00
2022-08-21T14:22:49.253Z,34.14
2022-08-21T14:25:25.632Z,35.24
2022-08-21T14:27:57.738Z,36.39
2022-08-21T14:30:30.135Z,35.87
2022-08-21T14:32:58.187Z,35.00
2022-08-21T14:35:25.700Z,36.12
2022-08-21T14:37:53.928Z,36.93
2022-08-21T14:40:23.034Z,37.53
2022-08-21T14:42:50.979Z,38.26
2022-08-21T14:45:27.853Z,37.49
2022-08-21T14:47:55.837Z,38.44
2022-08-21T14:50:23.070Z,38.32
2022-08-21T14:52:50.510Z,38.31
2022-08-21T14:55:18.899Z,37.15
2022-08-21T14:57:47.555Z,37.84
2022-08-21T15:00:17.928Z,38.56
2022-08-21T15:02:45.389Z,37.75
2022-08-21T15:05:13.389Z,37.74
2022-08-21T15:07:42.547Z,37.97
2022-08-21T15:10:10.003Z,37.58
2022-08-21T15:12:37.302Z,37.67
2022-08-21T15:15:08.623Z,37.15
2022-08-21T15:17:36.717Z,37.55
2022-08-21T15:20:05.243Z,36.95
2022-08-21T15:22:32.410Z,37.17
2022-08-21T15:25:02.031Z,37.78
2022-08-21T15:27:29.973Z,35.91
2022-08-21T15:29:57.193Z,36.65
2022-08-21T15:32:27.126Z,37.43
2022-08-21T15:34:54.803Z,38.06
2022-08-21T15:37:22.671Z,37.72
2022-08-21T15:39:54.195Z,37.43
2022-08-21T15:42:21.977Z,37.31
2022-08-21T15:44:49.352Z,37.21
2022-08-21T15:47:19.268Z,36.93
2022-08-21T15:49:46.523Z,37.13
2022-08-21T15:52:14.605Z,35.53
2022-08-21T15:54:42.426Z,36.07
2022-08-21T15:57:14.123Z,35.32
2022-08-21T15:59:46.724Z,35.39
2022-08-21T16:02:22.971Z,35.41
2022-08-21T16:04:50.278Z,35.41
2022-08-21T16:07:17.699Z,35.79
2022-08-21T16:09:45.337Z,35.77
2022-08-21T16:12:17.156Z,36.42
2022-08-21T16:14:44.352Z,36.82
2022-08-21T16:17:11.789Z,37.40
2022-08-21T16:19:39.716Z,37.14
2022-08-21T16:22:06.997Z,37.23
2022-08-21T16:24:34.433Z,37.37
2022-08-21T16:27:03.815Z,36.18
2022-08-21T16:29:36.765Z,36.40
2022-08-21T16:32:04.758Z,36.96
2022-08-21T16:34:32.042Z,36.87
2022-08-21T16:36:59.421Z,36.49
2022-08-21T16:39:26.872Z,37.28
2022-08-21T16:41:54.091Z,37.98
2022-08-21T16:44:22.088Z,37.77
2022-08-21T16:46:50.269Z,37.03
2022-08-21T16:49:17.573Z,36.58
2022-08-21T16:51:44.885Z,36.75
2022-08-21T16:54:12.204Z,37.79
2022-08-21T16:56:41.368Z,38.35
2022-08-21T16:59:11.056Z,38.36
2022-08-21T17:01:38.698Z,38.40
2022-08-21T17:04:06.090Z,38.84
2022-08-21T17:06:33.754Z,39.08
2022-08-21T17:09:04.352Z,39.48
2022-08-21T17:11:37.534Z,39.93
2022-08-21T17:14:07.905Z,39.92
2022-08-21T17:16:35.450Z,40.37
2022-08-21T17:19:02.684Z,40.48
2022-08-21T17:21:29.925Z,40.78
2022-08-21T17:23:57.184Z,41.08
2022-08-21T17:26:24.911Z,41.47
2022-08-21T17:28:54.904Z,41.89
2022-08-21T17:31:22.515Z,41.65
2022-08-21T17:33:52.715Z,42.04
2022-08-21T17:36:27.404Z,41.96
2022-08-21T17:38:55.207Z,42.18
2022-08-21T17:41:22.880Z,41.93
2022-08-21T17:43:51.607Z,41.76
2022-08-21T17:46:20.944Z,42.32
2022-08-21T17:48:48.140Z,42.75
2022-08-21T17:51:16.250Z,42.82
2022-08-21T17:53:45.021Z,42.69
2022-08-21T17:56:16.383Z,42.59
2022-08-21T17:58:51.431Z,42.97
2022-08-21T18:01:19.457Z,43.17
2022-08-21T18:03:47.378Z,43.09
2022-08-21T18:06:17.678Z,43.15
2022-08-21T18:08:45.974Z,43.44
2022-08-21T18:11:23.141Z,43.35
2022-08-21T18:13:53.085Z,43.96
2022-08-21T18:16:21.078Z,44.27
2022-08-21T18:18:49.179Z,44.32
2022-08-21T18:21:16.656Z,44.52
2022-08-21T18:23:45.038Z,44.44
2022-08-21T18:26:19.135Z,44.50
2022-08-21T18:28:46.543Z,44.46
2022-08-21T18:31:14.035Z,44.55
2022-08-21T18:33:57.046Z,44.67
2022-08-21T18:36:27.653Z,44.72
2022-08-21T18:39:13.577Z,44.61
2022-08-21T18:41:45.246Z,44.62
2022-08-21T18:44:13.857Z,44.48
2022-08-21T18:46:50.265Z,44.45
2022-08-21T18:49:18.049Z,44.39
2022-08-21T18:51:46.085Z,44.40
2022-08-21T18:54:14.905Z,44.30
2022-08-21T18:56:42.703Z,43.61
2022-08-21T18:59:18.573Z,43.66
2022-08-21T19:01:48.123Z,43.82
2022-08-21T19:04:41.155Z,44.10
2022-08-21T19:07:03.772Z,44.33
2022-08-21T19:09:31.276Z,44.61
2022-08-21T19:11:58.590Z,44.77
2022-08-21T19:14:25.928Z,45.14
2022-08-21T19:16:53.237Z,45.80
2022-08-21T19:19:20.541Z,46.23
2022-08-21T19:21:49.543Z,46.45
2022-08-21T19:24:18.165Z,46.67
2022-08-21T19:26:50.348Z,47.09
2022-08-21T19:29:34.569Z,46.22
2022-08-21T19:32:06.429Z,46.67
2022-08-21T19:34:36.089Z,46.61
2022-08-21T19:37:03.787Z,46.09
2022-08-21T19:39:39.529Z,46.60
2022-08-21T19:42:10.198Z,46.06
2022-08-21T19:44:37.959Z,46.37
2022-08-21T19:47:11.678Z,46.37
2022-08-21T19:49:40.032Z,46.12
2022-08-21T19:52:12.911Z,45.94
2022-08-21T19:54:54.798Z,45.73
2022-08-21T19:57:22.526Z,44.79
2022-08-21T19:59:50.018Z,44.91
2022-08-21T20:02:19.591Z,44.87
2022-08-21T20:04:53.916Z,44.94
2022-08-21T20:07:25.126Z,44.62
2022-08-21T20:09:54.680Z,45.04
2022-08-21T20:12:23.178Z,45.33
2022-08-21T20:14:50.825Z,45.65
2022-08-21T20:17:18.895Z,45.44
2022-08-21T20:19:49.201Z,46.08
2022-08-21T20:22:20.153Z,46.40
2022-08-21T20:24:47.444Z,46.34
2022-08-21T20:27:19.842Z,46.64
2022-08-21T20:29:47.304Z,46.89
2022-08-21T20:32:17.321Z,47.06
2022-08-21T20:37:36.770Z,47.09
2022-08-21T20:40:10.080Z,47.05
2022-08-21T20:42:38.691Z,46.98
2022-08-21T20:45:08.054Z,47.13
2022-08-21T20:47:36.929Z,47.37
2022-08-21T20:50:11.565Z,47.72
2022-08-21T20:52:41.346Z,48.31
2022-08-21T20:55:14.096Z,48.72
2022-08-21T20:57:51.072Z,49.41
2022-08-21T21:00:20.937Z,49.80
2022-08-21T21:06:13.663Z,49.61
2022-08-21T21:08:46.639Z,49.62
2022-08-21T21:11:23.009Z,49.79
2022-08-21T21:14:16.414Z,49.90
2022-08-21T21:16:50.775Z,49.90
2022-08-21T21:19:20.762Z,50.02
2022-08-21T21:21:51.512Z,49.89
2022-08-21T21:24:35.430Z,50.06
2022-08-21T21:27:12.213Z,50.04
2022-08-21T21:29:42.336Z,50.01
2022-08-21T21:32:09.815Z,50.18
2022-08-21T21:34:46.179Z,50.26
2022-08-21T21:40:20.589Z,49.96
2022-08-21T21:43:10.565Z,49.99
2022-08-21T21:45:57.633Z,50.07
2022-08-21T21:48:43.029Z,50.07
2022-08-21T21:51:32.828Z,49.84
2022-08-21T21:54:18.268Z,50.08
2022-08-21T21:56:55.898Z,49.90
2022-08-21T21:59:35.956Z,49.97
2022-08-21T22:02:09.140Z,49.90
2022-08-21T22:04:40.171Z,49.74
2022-08-21T22:07:21.349Z,49.46
2022-08-21T22:09:54.309Z,48.88
2022-08-21T22:12:29.499Z,48.99
2022-08-21T22:14:57.936Z,49.04
2022-08-21T22:17:54.484Z,48.97
2022-08-21T22:20:39.778Z,48.77
2022-08-21T22:23:10.310Z,48.54
2022-08-21T22:25:41.767Z,49.08
2022-08-21T22:28:11.432Z,48.69
2022-08-21T22:30:40.702Z,48.17
2022-08-21T22:33:12.911Z,47.95
2022-08-21T22:35:42.942Z,48.41
2022-08-21T22:38:16.424Z,48.40
2022-08-21T22:40:46.122Z,48.54
2022-08-21T22:43:18.333Z,48.52
2022-08-21T22:45:48.662Z,47.81
2022-08-21T22:48:22.526Z,48.88
2022-08-21T22:51:03.961Z,48.92
2022-08-21T22:53:37.416Z,48.95
2022-08-21T22:56:06.462Z,48.85
2022-08-21T22:58:36.789Z,49.25
2022-08-21T23:01:16.410Z,49.67
2022-08-21T23:03:53.560Z,49.98
2022-08-21T23:06:23.222Z,50.44
2022-08-21T23:08:51.091Z,50.87
2022-08-21T23:11:23.434Z,51.69
2022-08-21T23:13:53.231Z,52.55
2022-08-21T23:16:23.875Z,53.30
2022-08-21T23:19:01.602Z,53.97
2022-08-21T23:21:47.593Z,53.72
2022-08-21T23:24:33.464Z,54.38
2022-08-21T23:27:20.710Z,55.20
2022-08-21T23:29:55.714Z,55.24
2022-08-21T23:32:47.186Z,55.27
2022-08-21T23:35:44.376Z,55.90
2022-08-21T23:38:28.914Z,56.02
2022-08-21T23:41:01.870Z,55.89
2022-08-21T23:43:51.859Z,56.83
2022-08-21T23:46:18.968Z,56.57
2022-08-21T23:48:51.952Z,57.27
2022-08-21T23:51:28.673Z,57.20
2022-08-21T23:54:02.168Z,56.95
2022-08-21T23:56:47.865Z,56.91
2022-08-21T23:59:28.225Z,56.85
